createdAt,value
2018-08-03T00:01:11.064Z,53.50
2018-08-03T00:03:39.170Z,54.00
2018-08-03T00:06:07.259Z,54.40
2018-08-03T00:08:35.365Z,54.80
2018-08-03T00:11:03.494Z,55.30
2018-08-03T00:13:31.609Z,56.30
2018-08-03T00:15:59.714Z,56.20
2018-08-03T00:18:27.869Z,56.30
2018-08-03T00:20:56.029Z,56.20
2018-08-03T00:23:24.149Z,56.10
2018-08-03T00:25:52.292Z,56.50
2018-08-03T00:28:20.372Z,56.80
2018-08-03T00:30:48.468Z,56.50
2018-08-03T00:33:16.664Z,57.10
2018-08-03T00:35:44.789Z,58.00
2018-08-03T00:38:12.950Z,58.60
2018-08-03T00:40:41.076Z,58.20
2018-08-03T00:43:09.212Z,58.40
2018-08-03T00:45:37.322Z,59.00
2018-08-03T00:48:05.455Z,59.30
2018-08-03T00:50:33.585Z,60.20
2018-08-03T00:53:01.735Z,61.30
2018-08-03T00:55:29.840Z,63.60
2018-08-03T00:57:57.918Z,66.70
2018-08-03T01:00:26.024Z,65.10
2018-08-03T01:02:54.095Z,64.90
2018-08-03T01:05:22.240Z,69.10
2018-08-03T01:07:50.365Z,70.60
2018-08-03T01:10:18.448Z,73.90
2018-08-03T01:12:47.650Z,75.80
2018-08-03T01:15:15.882Z,75.20
2018-08-03T01:17:44.053Z,74.50
2018-08-03T01:20:12.197Z,73.30
2018-08-03T01:22:40.314Z,72.70
2018-08-03T01:25:08.458Z,71.30
2018-08-03T01:27:36.591Z,70.20
2018-08-03T01:30:05.402Z,69.40
2018-08-03T01:32:33.545Z,69.20
2018-08-03T01:35:01.633Z,69.10
2018-08-03T01:37:29.758Z,68.70
2018-08-03T01:39:57.886Z,68.60
2018-08-03T01:42:25.973Z,69.90
2018-08-03T01:44:54.116Z,68.50
2018-08-03T01:47:22.231Z,68.70
2018-08-03T01:49:50.323Z,69.40
2018-08-03T01:52:18.445Z,70.00
2018-08-03T01:54:46.526Z,70.20
2018-08-03T01:57:14.630Z,71.30
2018-08-03T01:59:42.734Z,71.70
2018-08-03T02:02:10.915Z,71.40
2018-08-03T02:04:39.048Z,71.80
2018-08-03T02:07:07.209Z,71.50
2018-08-03T02:09:35.354Z,71.20
2018-08-03T02:12:03.472Z,71.20
2018-08-03T03:36:29.396Z,71.20
2018-08-03T03:38:57.582Z,81.60
2018-08-03T03:41:25.650Z,81.70
2018-08-03T03:43:53.806Z,81.80
2018-08-03T03:46:21.924Z,80.90
2018-08-03T03:48:50.046Z,80.40
2018-08-03T03:51:18.200Z,80.60
2018-08-03T03:53:46.262Z,80.30
2018-08-03T03:56:14.332Z,80.20
2018-08-03T03:58:42.452Z,79.80
2018-08-03T04:03:38.572Z,78.70
2018-08-03T04:06:07.136Z,78.90
2018-08-03T04:11:03.228Z,79.00
2018-08-03T04:13:31.380Z,78.70
2018-08-03T04:15:59.524Z,78.80
2018-08-03T04:18:27.641Z,79.70
2018-08-03T04:20:59.358Z,79.20
2018-08-03T04:23:27.464Z,79.40
2018-08-03T04:25:55.559Z,79.00
2018-08-03T04:28:23.654Z,79.60
2018-08-03T04:30:53.083Z,79.00
2018-08-03T04:33:21.256Z,79.10
2018-08-03T04:35:49.383Z,78.50
2018-08-03T04:38:17.637Z,77.50
2018-08-03T04:40:45.746Z,76.10
2018-08-03T04:43:13.898Z,73.90
2018-08-03T04:45:41.967Z,73.40
2018-08-03T04:48:10.044Z,72.20
2018-08-03T04:50:40.540Z,70.40
2018-08-03T04:53:08.722Z,69.20
2018-08-03T04:55:36.901Z,68.40
2018-08-03T04:58:05.099Z,66.90
2018-08-03T05:00:33.779Z,66.10
2018-08-03T05:03:01.861Z,64.70
2018-08-03T05:05:29.996Z,63.20
2018-08-03T05:07:58.130Z,61.80
2018-08-03T05:10:26.250Z,60.40
2018-08-03T05:12:54.371Z,59.20
2018-08-03T05:15:22.505Z,58.60
2018-08-03T05:17:50.566Z,58.20
2018-08-03T05:20:18.684Z,57.90
2018-08-03T05:22:46.763Z,56.60
2018-08-03T05:25:14.915Z,55.30
2018-08-03T05:27:43.043Z,53.60
2018-08-03T05:30:11.256Z,52.70
2018-08-03T05:32:39.359Z,51.80
2018-08-03T05:35:08.433Z,50.40
2018-08-03T05:37:36.889Z,49.70
2018-08-03T05:40:05.445Z,49.90
2018-08-03T05:42:33.622Z,48.90
2018-08-03T05:45:01.709Z,47.20
2018-08-03T05:47:29.829Z,47.20
2018-08-03T05:49:57.916Z,45.10
2018-08-03T05:52:26.098Z,45.00
2018-08-03T05:54:54.201Z,45.20
2018-08-03T05:57:22.302Z,43.00
2018-08-03T05:59:50.552Z,42.00
2018-08-03T06:02:18.692Z,40.70
2018-08-03T06:04:46.853Z,41.80
2018-08-03T06:07:14.997Z,41.30
2018-08-03T06:09:43.149Z,40.60
2018-08-03T06:12:11.236Z,38.90
2018-08-03T06:14:39.320Z,38.20
2018-08-03T06:17:07.428Z,36.80
2018-08-03T06:19:35.528Z,35.20
2018-08-03T06:22:03.615Z,34.40
2018-08-03T06:24:32.446Z,33.60
2018-08-03T06:27:00.635Z,33.60
2018-08-03T06:29:28.993Z,34.50
2018-08-03T06:31:57.166Z,34.30
2018-08-03T06:34:25.420Z,36.00
2018-08-03T06:36:53.603Z,36.40
2018-08-03T06:39:21.756Z,35.60
2018-08-03T06:41:49.859Z,34.90
2018-08-03T06:44:17.955Z,33.70
2018-08-03T06:46:46.148Z,31.70
2018-08-03T06:49:14.453Z,30.40
2018-08-03T06:51:42.768Z,27.50
2018-08-03T06:54:11.028Z,26.00
2018-08-03T06:56:39.188Z,25.50
2018-08-03T06:59:07.428Z,24.00
2018-08-03T07:01:35.582Z,21.50
2018-08-03T07:04:03.724Z,19.50
2018-08-03T07:06:31.904Z,17.80
2018-08-03T07:09:00.010Z,17.60
2018-08-03T07:11:28.153Z,16.40
2018-08-03T07:13:56.307Z,15.00
2018-08-03T07:16:24.468Z,13.80
2018-08-03T07:18:52.645Z,14.20
2018-08-03T07:21:24.646Z,15.20
2018-08-03T07:23:52.833Z,16.60
2018-08-03T07:26:20.895Z,16.80
2018-08-03T07:28:49.322Z,17.40
2018-08-03T07:31:17.432Z,18.80
2018-08-03T07:33:45.551Z,18.70
2018-08-03T07:36:13.668Z,19.50
2018-08-03T07:38:41.766Z,20.00
2018-08-03T07:41:09.848Z,19.00
2018-08-03T07:43:37.999Z,17.20
2018-08-03T07:46:06.207Z,15.80
2018-08-03T07:48:34.305Z,14.00
2018-08-03T07:51:02.665Z,13.40
2018-08-03T07:53:31.354Z,13.90
2018-08-03T07:55:59.556Z,14.80
2018-08-03T07:58:27.708Z,15.50
2018-08-03T08:00:55.866Z,15.80
2018-08-03T08:03:24.038Z,16.90
2018-08-03T08:05:52.172Z,16.90
2018-08-03T08:08:20.385Z,17.10
2018-08-03T08:10:48.507Z,16.60
2018-08-03T08:13:16.713Z,16.20
2018-08-03T08:15:44.793Z,14.20
2018-08-03T08:18:13.798Z,11.90
2018-08-03T08:20:42.018Z,10.50
2018-08-03T08:23:10.175Z,9.30
2018-08-03T08:25:38.320Z,9.70
2018-08-03T08:28:06.439Z,10.40
2018-08-03T08:30:34.561Z,11.20
2018-08-03T08:33:02.721Z,12.20
2018-08-03T08:35:30.862Z,12.70
2018-08-03T08:37:58.926Z,12.00
2018-08-03T08:40:27.085Z,12.30
2018-08-03T08:42:55.264Z,11.50
2018-08-03T08:45:23.403Z,11.20
2018-08-03T08:47:51.608Z,11.50
2018-08-03T08:50:19.793Z,9.80
2018-08-03T08:52:47.855Z,9.30
2018-08-03T08:55:15.975Z,9.90
2018-08-03T08:57:44.109Z,9.80
2018-08-03T09:00:12.322Z,9.80
2018-08-03T09:02:40.391Z,9.80
2018-08-03T09:05:08.493Z,8.30
2018-08-03T09:07:36.887Z,7.30
2018-08-03T09:10:05.196Z,6.00
2018-08-03T09:12:33.263Z,4.60
2018-08-03T09:15:01.360Z,5.60
2018-08-03T09:17:29.452Z,6.90
2018-08-03T09:19:57.584Z,7.70
2018-08-03T09:22:25.676Z,8.60
2018-08-03T09:24:53.810Z,9.60
2018-08-03T09:27:21.922Z,9.60
2018-08-03T09:29:50.064Z,8.90
2018-08-03T09:32:18.167Z,8.40
2018-08-03T09:34:46.250Z,9.30
2018-08-03T09:37:14.385Z,9.70
2018-08-03T09:39:42.535Z,9.60
2018-08-03T09:42:10.720Z,9.40
2018-08-03T09:44:38.844Z,8.40
2018-08-03T09:47:07.044Z,8.10
2018-08-03T09:49:35.165Z,7.60
2018-08-03T09:52:03.300Z,6.80
2018-08-03T09:54:31.481Z,6.00
2018-08-03T09:56:59.589Z,5.10
2018-08-03T09:59:27.777Z,4.30
2018-08-03T10:01:55.913Z,4.00
2018-08-03T10:04:24.130Z,4.70
2018-08-03T10:06:52.279Z,5.20
2018-08-03T10:09:20.376Z,5.60
2018-08-03T10:11:48.509Z,6.60
2018-08-03T10:14:16.641Z,8.10
2018-08-03T10:16:44.740Z,7.40
2018-08-03T10:19:12.823Z,7.60
2018-08-03T10:21:41.049Z,5.80
2018-08-03T10:24:09.568Z,5.10
2018-08-03T10:26:37.981Z,4.20
2018-08-03T10:29:06.132Z,4.70
2018-08-03T10:31:34.245Z,5.00
2018-08-03T10:34:02.409Z,4.50
2018-08-03T10:36:30.521Z,4.40
2018-08-03T10:38:58.776Z,4.90
2018-08-03T10:41:26.866Z,4.40
2018-08-03T10:43:55.124Z,3.80
2018-08-03T10:46:23.339Z,3.90
2018-08-03T10:48:51.465Z,2.60
2018-08-03T10:51:19.678Z,2.70
2018-08-03T10:53:47.854Z,3.80
2018-08-03T10:56:15.979Z,3.90
2018-08-03T10:58:44.060Z,2.70
2018-08-03T11:01:12.289Z,2.70
2018-08-03T11:03:40.471Z,2.90
2018-08-03T11:06:08.667Z,3.00
2018-08-03T11:08:36.969Z,1.70
2018-08-03T11:11:05.090Z,1.50
2018-08-03T11:13:33.228Z,2.20
2018-08-03T11:16:01.342Z,2.50
2018-08-03T11:18:29.468Z,2.10
2018-08-03T11:20:57.565Z,1.90
2018-08-03T11:23:25.757Z,1.70
2018-08-03T11:25:54.026Z,2.30
2018-08-03T11:28:22.206Z,2.30
2018-08-03T11:30:50.674Z,1.00
2018-08-03T11:33:18.881Z,1.00
2018-08-03T11:35:46.973Z,1.00
2018-08-03T11:38:15.189Z,1.40
2018-08-03T11:40:43.303Z,1.00
2018-08-03T11:43:11.437Z,2.20
2018-08-03T11:45:39.607Z,2.40
2018-08-03T11:48:07.708Z,1.80
2018-08-03T11:50:35.861Z,2.90
2018-08-03T11:53:04.020Z,4.20
2018-08-03T11:55:32.151Z,4.50
2018-08-03T11:58:00.317Z,4.70
2018-08-03T12:00:28.543Z,4.70
2018-08-03T12:02:56.814Z,5.40
2018-08-03T12:05:25.066Z,4.70
2018-08-03T12:07:53.188Z,4.70
2018-08-03T12:10:21.309Z,4.30
2018-08-03T12:12:49.440Z,4.40
2018-08-03T12:15:17.874Z,4.50
2018-08-03T12:17:45.988Z,4.90
2018-08-03T12:20:14.155Z,4.40
2018-08-03T12:22:42.285Z,4.10
2018-08-03T12:25:10.429Z,4.30
2018-08-03T12:27:38.534Z,4.00
2018-08-03T12:30:06.708Z,4.30
2018-08-03T12:32:34.922Z,3.90
2018-08-03T12:35:03.056Z,3.90
2018-08-03T12:37:31.148Z,3.60
2018-08-03T12:39:59.272Z,4.20
2018-08-03T12:42:27.399Z,3.90
2018-08-03T12:44:55.467Z,4.20
2018-08-03T12:47:23.613Z,4.70
2018-08-03T12:49:51.751Z,4.10
2018-08-03T12:52:19.868Z,4.50
2018-08-03T12:54:47.974Z,3.40
2018-08-03T12:57:16.110Z,3.60
2018-08-03T12:59:44.341Z,3.90
2018-08-03T13:02:12.456Z,4.40
2018-08-03T13:04:40.605Z,4.10
2018-08-03T13:07:08.796Z,3.70
2018-08-03T13:09:36.904Z,4.10
2018-08-03T13:12:05.029Z,3.90
2018-08-03T13:14:33.250Z,3.70
2018-08-03T13:17:01.416Z,3.50
2018-08-03T13:19:29.528Z,3.20
2018-08-03T13:21:57.690Z,3.00
2018-08-03T13:24:25.810Z,3.20
2018-08-03T13:26:53.905Z,2.80
2018-08-03T13:29:22.008Z,2.20
2018-08-03T13:31:50.129Z,1.90
2018-08-03T13:34:18.244Z,1.80
2018-08-03T13:36:46.487Z,2.30
2018-08-03T13:39:14.655Z,2.50
2018-08-03T13:41:42.756Z,1.70
2018-08-03T13:44:10.936Z,1.80
2018-08-03T13:46:39.124Z,1.80
2018-08-03T13:49:07.190Z,1.60
2018-08-03T13:51:35.340Z,1.00
2018-08-03T13:54:04.329Z,1.00
2018-08-03T13:56:32.479Z,1.00
2018-08-03T13:59:00.585Z,1.00
2018-08-03T14:02:42.253Z,1.30
2018-08-03T14:05:10.500Z,1.50
2018-08-03T14:07:38.709Z,1.50
2018-08-03T14:10:07.555Z,1.20
2018-08-03T14:12:35.684Z,1.70
2018-08-03T14:15:03.847Z,1.60
2018-08-03T14:17:31.945Z,2.00
2018-08-03T14:20:00.001Z,2.50
2018-08-03T14:22:28.145Z,2.60
2018-08-03T14:24:56.293Z,2.60
2018-08-03T14:27:24.403Z,2.70
2018-08-03T14:29:52.549Z,2.10
2018-08-03T14:32:20.668Z,2.40
2018-08-03T14:34:48.894Z,2.70
2018-08-03T14:37:17.071Z,2.80
2018-08-03T14:39:45.493Z,2.50
2018-08-03T14:42:13.676Z,2.60
2018-08-03T14:44:41.852Z,2.30
2018-08-03T14:47:10.077Z,1.90
2018-08-03T14:49:38.284Z,1.80
2018-08-03T14:54:34.362Z,2.70
2018-08-03T14:57:02.557Z,2.10
2018-08-03T14:59:30.717Z,2.10
2018-08-03T15:01:58.888Z,2.20
2018-08-03T15:04:27.073Z,2.70
2018-08-03T15:06:55.245Z,1.90
2018-08-03T15:09:23.357Z,1.80
2018-08-03T15:11:51.815Z,1.60
2018-08-03T15:14:19.942Z,1.90
2018-08-03T15:16:48.093Z,2.30
2018-08-03T15:19:16.258Z,2.40
2018-08-03T15:21:44.380Z,2.70
2018-08-03T15:24:12.642Z,2.50
2018-08-03T15:26:40.830Z,2.40
2018-08-03T15:29:08.956Z,2.60
2018-08-03T15:31:37.077Z,2.80
2018-08-03T15:34:05.294Z,2.20
2018-08-03T15:36:33.444Z,2.50
2018-08-03T15:39:01.601Z,2.60
2018-08-03T15:41:29.723Z,2.50
2018-08-03T15:43:57.836Z,2.70
2018-08-03T15:46:25.957Z,2.60
2018-08-03T15:48:54.136Z,2.70
2018-08-03T15:51:22.294Z,2.30
2018-08-03T15:53:50.731Z,2.30
2018-08-03T15:56:18.913Z,2.00
2018-08-03T15:58:47.108Z,2.40
2018-08-03T16:01:15.302Z,2.60
2018-08-03T16:03:43.558Z,3.00
2018-08-03T16:06:11.725Z,3.20
2018-08-03T16:08:39.866Z,3.50
2018-08-03T16:11:07.982Z,3.00
2018-08-03T16:13:36.170Z,3.30
2018-08-03T16:16:04.364Z,3.60
2018-08-03T16:18:32.525Z,3.90
2018-08-03T16:21:00.682Z,3.80
2018-08-03T16:23:28.897Z,3.90
2018-08-03T16:28:25.063Z,4.10
2018-08-03T16:30:53.245Z,3.70
2018-08-03T16:33:21.318Z,3.40
2018-08-03T16:35:49.454Z,2.70
2018-08-03T16:38:17.558Z,2.80
2018-08-03T16:40:45.683Z,3.10
2018-08-03T16:43:13.776Z,3.20
2018-08-03T16:45:41.858Z,3.20
2018-08-03T16:48:09.956Z,3.60
2018-08-03T16:50:38.025Z,3.40
2018-08-03T16:53:06.162Z,3.70
2018-08-03T16:55:34.374Z,3.40
2018-08-03T16:58:02.508Z,3.40
2018-08-03T17:00:30.614Z,3.70
2018-08-03T17:02:58.793Z,3.50
2018-08-03T17:05:26.880Z,3.70
2018-08-03T17:07:55.033Z,3.60
2018-08-03T17:10:23.253Z,3.80
2018-08-03T17:12:51.360Z,3.90
2018-08-03T17:15:19.460Z,4.00
2018-08-03T17:17:47.596Z,4.00
2018-08-03T17:20:15.770Z,4.20
2018-08-03T17:22:43.864Z,4.20
2018-08-03T17:25:12.060Z,4.20
2018-08-03T17:27:40.221Z,3.80
2018-08-03T17:30:08.303Z,4.00
2018-08-03T17:32:36.449Z,4.20
2018-08-03T17:35:04.626Z,4.00
2018-08-03T17:37:32.958Z,4.10
2018-08-03T17:40:01.065Z,4.50
2018-08-03T17:42:29.219Z,4.60
2018-08-03T17:44:57.327Z,4.70
2018-08-03T17:47:25.444Z,4.60
2018-08-03T17:49:53.569Z,5.10
2018-08-03T17:52:21.714Z,5.30
2018-08-03T17:54:49.948Z,5.00
2018-08-03T17:57:18.041Z,5.20
2018-08-03T17:59:46.177Z,5.30
2018-08-03T18:02:14.332Z,5.60
2018-08-03T18:04:42.434Z,6.20
2018-08-03T18:07:11.560Z,6.70
2018-08-03T18:09:39.688Z,8.00
2018-08-03T18:12:07.957Z,7.90
2018-08-03T18:14:36.149Z,6.90
2018-08-03T18:17:04.533Z,9.80
2018-08-03T18:19:32.716Z,10.00
2018-08-03T18:24:29.006Z,9.90
2018-08-03T18:26:57.227Z,10.80
2018-08-03T18:29:25.517Z,11.10
2018-08-03T18:31:53.730Z,11.70
2018-08-03T18:34:21.911Z,11.80
2018-08-03T18:36:50.212Z,13.00
2018-08-03T18:39:18.347Z,13.00
2018-08-03T18:41:46.465Z,13.30
2018-08-03T18:44:14.609Z,13.90
2018-08-03T18:46:42.810Z,14.00
2018-08-03T18:49:10.898Z,13.80
2018-08-03T18:51:39.080Z,14.40
2018-08-03T18:54:07.216Z,14.40
2018-08-03T18:56:35.394Z,16.30
2018-08-03T19:01:31.445Z,15.20
2018-08-03T19:03:59.601Z,15.10
2018-08-03T19:06:27.728Z,14.50
2018-08-03T19:08:55.809Z,14.70
2018-08-03T19:11:24.044Z,15.00
2018-08-03T19:13:52.200Z,15.00
2018-08-03T19:16:20.350Z,15.40
2018-08-03T19:18:48.485Z,15.40
2018-08-03T19:21:16.572Z,14.60
2018-08-03T19:23:44.705Z,14.70
2018-08-03T19:26:12.819Z,14.00
2018-08-03T19:28:41.144Z,14.00
2018-08-03T19:31:09.312Z,14.90
2018-08-03T19:33:37.412Z,14.20
2018-08-03T19:36:05.679Z,13.90
2018-08-03T19:38:33.756Z,15.00
2018-08-03T19:41:01.812Z,15.00
2018-08-03T19:43:29.950Z,15.50
2018-08-03T19:45:58.125Z,15.30
2018-08-03T19:48:26.233Z,15.70
2018-08-03T19:50:54.428Z,16.00
2018-08-03T19:53:22.483Z,15.90
2018-08-03T19:55:50.626Z,17.20
2018-08-03T19:58:18.833Z,17.30
2018-08-03T20:00:46.950Z,17.10
2018-08-03T20:03:15.041Z,17.80
2018-08-03T20:05:43.173Z,18.40
2018-08-03T20:08:11.333Z,18.60
2018-08-03T20:10:39.418Z,19.40
2018-08-03T20:13:07.582Z,19.90
2018-08-03T20:15:35.779Z,19.50
2018-08-03T20:18:03.965Z,20.10
2018-08-03T20:20:32.105Z,20.30
2018-08-03T20:23:00.300Z,19.70
2018-08-03T20:25:28.396Z,19.80
2018-08-03T20:27:56.459Z,21.10
2018-08-03T20:30:24.608Z,20.30
2018-08-03T20:32:52.744Z,20.60
2018-08-03T20:35:20.827Z,20.50
2018-08-03T20:37:48.940Z,20.70
2018-08-03T20:40:17.016Z,20.30
2018-08-03T20:42:45.149Z,20.30
2018-08-03T20:45:13.310Z,20.00
2018-08-03T20:47:41.436Z,18.90
2018-08-03T20:50:09.548Z,17.50
2018-08-03T20:52:37.749Z,16.60
2018-08-03T20:55:05.897Z,14.20
2018-08-03T20:57:34.005Z,13.50
2018-08-03T21:00:02.200Z,13.00
2018-08-03T21:02:30.314Z,12.60
2018-08-03T21:07:26.356Z,12.90
2018-08-03T21:09:54.497Z,12.90
2018-08-03T21:12:22.592Z,12.80
2018-08-03T21:14:50.722Z,13.00
2018-08-03T21:17:18.795Z,12.90
2018-08-03T21:19:46.946Z,13.50
2018-08-03T21:22:15.052Z,14.10
2018-08-03T21:24:43.196Z,14.70
2018-08-03T21:27:12.971Z,15.40
2018-08-03T21:29:41.101Z,15.60
2018-08-03T21:32:09.240Z,16.00
2018-08-03T21:34:37.370Z,16.30
2018-08-03T21:37:05.458Z,16.80
2018-08-03T21:39:33.570Z,15.80
2018-08-03T21:42:01.689Z,15.70
2018-08-03T21:44:29.829Z,15.40
2018-08-03T21:46:57.930Z,15.20
2018-08-03T21:49:26.024Z,15.10
2018-08-03T21:51:54.100Z,15.60
2018-08-03T21:54:22.279Z,15.40
2018-08-03T21:56:50.415Z,15.40
2018-08-03T21:59:18.571Z,15.00
2018-08-03T22:01:46.692Z,15.30
2018-08-03T22:04:14.795Z,15.40
2018-08-03T22:06:42.876Z,15.70
2018-08-03T22:09:11.008Z,14.20
2018-08-03T22:11:39.163Z,13.60
2018-08-03T22:14:07.633Z,13.10
2018-08-03T22:16:35.735Z,13.40
2018-08-03T22:19:03.844Z,13.40
2018-08-03T22:21:32.002Z,13.20
2018-08-03T22:24:00.043Z,13.50
2018-08-03T22:26:28.164Z,13.70
2018-08-03T22:28:56.284Z,13.30
2018-08-03T22:31:24.455Z,13.50
2018-08-03T22:33:52.600Z,13.00
2018-08-03T22:36:20.745Z,12.70
2018-08-03T22:38:48.952Z,12.30
2018-08-03T22:41:17.035Z,11.50
2018-08-03T22:43:45.121Z,11.10
2018-08-03T22:46:13.208Z,11.20
2018-08-03T22:48:41.322Z,10.70
2018-08-03T22:51:09.431Z,10.60
2018-08-03T22:53:37.507Z,10.80
2018-08-03T22:56:05.981Z,11.10
2018-08-03T22:58:34.296Z,11.80
2018-08-03T23:01:02.454Z,12.00
2018-08-03T23:03:30.572Z,12.40
2018-08-03T23:05:58.641Z,12.90
2018-08-03T23:08:26.698Z,13.20
2018-08-03T23:10:54.775Z,13.10
2018-08-03T23:13:22.865Z,13.20
2018-08-03T23:18:18.891Z,12.70
2018-08-03T23:20:46.979Z,12.00
2018-08-03T23:23:15.134Z,13.30
2018-08-03T23:25:43.266Z,13.30
2018-08-03T23:28:11.363Z,12.90
2018-08-03T23:30:39.557Z,12.90
2018-08-03T23:33:07.652Z,13.00
2018-08-03T23:35:35.758Z,14.00
2018-08-03T23:38:03.915Z,13.70
2018-08-03T23:40:32.016Z,14.10
2018-08-03T23:43:00.129Z,14.20
2018-08-03T23:45:28.244Z,14.70
2018-08-03T23:47:56.357Z,13.90
2018-08-03T23:50:24.423Z,14.90
2018-08-03T23:52:52.517Z,15.20
2018-08-03T23:55:20.661Z,16.10
2018-08-03T23:57:48.773Z,16.20
